Time;durP1;ratioP1;P1;durP2;ratioP2;P2;SDS_P1;SDS_P2;PMS_P1;PMS_P2;Temp;Humidity;BMP_temperature;BMP_pressure;BME280_temperature;BME280_humidity;BME280_pressure;Samples;Min_cycle;Max_cycle;Signal;HPM_P1;HPM_P2
2023/11/10 00:00:22;;;;;;;8.73;8.60;;;7.30;99.90;;;;;;5021779;28;20465;-69
2023/11/10 00:02:51;;;;;;;8.53;8.43;;;7.30;99.90;;;;;;5012609;28;20470;-74
2023/11/10 00:05:20;;;;;;;9.00;8.80;;;7.40;99.90;;;;;;5026973;28;20570;-71
2023/11/10 00:07:47;;;;;;;9.00;8.80;;;7.50;99.90;;;;;;5021186;28;20957;-71
2023/11/10 00:10:14;;;;;;;8.67;8.57;;;7.60;99.90;;;;;;5014011;28;20469;-70
2023/11/10 00:12:41;;;;;;;9.13;8.93;;;7.60;99.90;;;;;;5052575;27;20467;-70
2023/11/10 00:15:09;;;;;;;9.00;8.80;;;7.60;99.90;;;;;;5027554;27;20470;-70
2023/11/10 00:17:36;;;;;;;8.80;8.63;;;7.60;99.90;;;;;;5027561;28;20467;-73
2023/11/10 00:20:05;;;;;;;8.60;8.50;;;7.70;99.90;;;;;;5011890;28;20465;-70
2023/11/10 00:22:32;;;;;;;8.50;8.40;;;7.70;99.90;;;;;;5017171;28;20484;-71
2023/11/10 00:24:59;;;;;;;9.10;8.90;;;7.80;99.90;;;;;;5022738;28;20486;-71
2023/11/10 00:27:27;;;;;;;8.60;8.50;;;7.80;99.90;;;;;;5020433;28;20468;-69
2023/11/10 00:29:54;;;;;;;8.50;8.40;;;7.90;99.90;;;;;;5019502;28;20481;-70
2023/11/10 00:32:21;;;;;;;8.73;8.57;;;7.90;99.90;;;;;;5026755;28;20479;-70
2023/11/10 00:34:48;;;;;;;8.20;8.10;;;7.90;99.90;;;;;;5027439;28;20453;-71
2023/11/10 00:37:16;;;;;;;8.50;8.40;;;8.00;99.90;;;;;;5027314;28;20461;-71
2023/11/10 00:39:44;;;;;;;8.40;8.30;;;8.10;99.90;;;;;;5018870;28;20473;-71
2023/11/10 00:42:12;;;;;;;8.17;8.07;;;8.10;99.90;;;;;;5024530;28;20457;-70
2023/11/10 00:44:39;;;;;;;7.77;7.67;;;8.20;99.90;;;;;;5026948;28;20620;-71
2023/11/10 00:47:07;;;;;;;8.37;8.27;;;8.10;99.90;;;;;;5016902;28;20461;-69
2023/11/10 00:49:35;;;;;;;8.40;8.30;;;8.20;99.90;;;;;;5019315;28;20526;-71
2023/11/10 00:52:01;;;;;;;8.10;8.00;;;8.20;99.90;;;;;;5024145;28;20449;-72
2023/11/10 00:54:30;;;;;;;7.70;7.60;;;8.20;99.90;;;;;;5023420;28;20469;-70
2023/11/10 00:56:57;;;;;;;8.63;8.53;;;8.30;99.90;;;;;;5014068;28;20469;-71
2023/11/10 00:59:24;;;;;;;7.80;7.70;;;8.30;99.90;;;;;;5017352;28;20470;-70
2023/11/10 01:01:50;;;;;;;8.23;8.13;;;8.30;99.90;;;;;;5020138;28;20469;-70
2023/11/10 01:04:17;;;;;;;8.17;8.07;;;8.30;99.90;;;;;;5019875;28;20469;-71
2023/11/10 01:06:44;;;;;;;8.73;8.63;;;8.30;99.90;;;;;;5010412;28;20632;-72
2023/11/10 01:09:12;;;;;;;8.70;8.60;;;8.30;99.90;;;;;;5044768;27;20199;-70
2023/11/10 01:11:40;;;;;;;8.43;8.33;;;8.40;99.90;;;;;;5025113;27;20504;-70
2023/11/10 01:14:07;;;;;;;9.00;8.80;;;8.40;99.90;;;;;;5063488;27;20530;-72
2023/11/10 01:16:34;;;;;;;8.53;8.43;;;8.30;99.90;;;;;;5023241;28;20828;-70
2023/11/10 01:19:02;;;;;;;8.23;8.13;;;8.30;99.90;;;;;;5026815;28;20517;-71
2023/11/10 01:21:28;;;;;;;8.37;8.27;;;8.30;99.90;;;;;;5025642;28;20540;-72
2023/11/10 01:23:56;;;;;;;8.40;8.30;;;8.20;99.90;;;;;;5019938;28;20464;-71
2023/11/10 01:26:24;;;;;;;8.43;8.33;;;8.20;99.90;;;;;;5022382;28;20481;-70
2023/11/10 01:28:52;;;;;;;8.27;8.17;;;8.10;99.90;;;;;;5009259;28;20470;-72
2023/11/10 01:31:19;;;;;;;8.53;8.43;;;8.10;99.90;;;;;;5018522;28;20825;-70
2023/11/10 01:33:46;;;;;;;8.70;8.60;;;8.10;99.90;;;;;;5020048;28;20465;-71
2023/11/10 01:36:13;;;;;;;9.03;8.83;;;8.20;99.90;;;;;;5026301;28;20492;-71
2023/11/10 01:38:40;;;;;;;8.60;8.50;;;8.20;99.90;;;;;;5026641;28;20465;-71
2023/11/10 01:41:09;;;;;;;8.70;8.60;;;8.30;99.90;;;;;;5022048;28;20930;-71
2023/11/10 01:43:36;;;;;;;8.63;8.53;;;8.30;99.90;;;;;;5018274;28;20619;-72
2023/11/10 01:46:06;;;;;;;9.37;9.17;;;8.30;99.90;;;;;;5021864;28;20495;-70
2023/11/10 01:48:33;;;;;;;9.10;8.90;;;8.40;99.90;;;;;;5017601;28;20466;-71
2023/11/10 01:51:01;;;;;;;9.50;9.30;;;8.40;99.90;;;;;;5017981;28;20490;-71
2023/11/10 01:53:28;;;;;;;9.67;9.47;;;8.40;99.90;;;;;;5019210;28;20849;-71
2023/11/10 01:55:54;;;;;;;9.60;9.40;;;8.40;99.90;;;;;;5021739;28;20472;-72
2023/11/10 01:58:20;;;;;;;9.70;9.50;;;8.40;99.90;;;;;;5014972;28;20535;-70
2023/11/10 02:00:49;;;;;;;9.90;9.70;;;8.40;99.90;;;;;;5022638;28;20866;-71
2023/11/10 02:03:17;;;;;;;10.00;9.80;;;8.50;99.90;;;;;;5021603;28;20209;-71
2023/11/10 02:05:44;;;;;;;9.90;9.70;;;8.50;99.90;;;;;;5022749;28;20496;-70
2023/11/10 02:08:11;;;;;;;9.60;9.40;;;8.40;99.90;;;;;;5014412;28;20502;-71
2023/11/10 02:10:38;;;;;;;9.70;9.50;;;8.40;99.90;;;;;;5037699;27;20449;-71
2023/11/10 02:13:05;;;;;;;10.07;9.87;;;8.40;99.90;;;;;;5024524;27;20848;-72
2023/11/10 02:15:32;;;;;;;10.00;9.80;;;8.50;99.90;;;;;;5024399;28;20491;-71
2023/11/10 02:17:59;;;;;;;9.93;9.73;;;8.40;99.90;;;;;;5025892;28;20453;-70
2023/11/10 02:20:27;;;;;;;9.90;9.70;;;8.40;99.90;;;;;;5020506;28;20465;-70
2023/11/10 02:22:54;;;;;;;10.10;9.90;;;8.50;99.90;;;;;;5012762;28;20472;-72
2023/11/10 02:25:22;;;;;;;10.03;9.83;;;8.50;99.90;;;;;;5024185;28;20492;-71
2023/11/10 02:27:50;;;;;;;10.43;10.23;;;8.50;99.90;;;;;;5016693;28;20457;-72
2023/11/10 02:30:18;;;;;;;10.30;10.10;;;8.50;99.90;;;;;;5016756;28;20549;-72
2023/11/10 02:32:46;;;;;;;10.27;10.07;;;8.40;99.90;;;;;;5020247;28;20457;-71
2023/11/10 02:35:14;;;;;;;10.60;10.40;;;8.40;99.90;;;;;;5025386;28;20449;-70
2023/11/10 02:37:41;;;;;;;10.63;10.43;;;8.40;99.90;;;;;;5021294;28;20923;-71
2023/11/10 02:40:09;;;;;;;10.27;10.07;;;8.40;99.90;;;;;;5024130;28;20487;-71
2023/11/10 02:42:37;;;;;;;10.37;10.17;;;8.40;99.90;;;;;;5019808;28;20468;-73
2023/11/10 02:45:05;;;;;;;10.20;10.00;;;8.40;99.90;;;;;;5012547;28;20488;-70
2023/11/10 02:47:33;;;;;;;10.97;10.67;;;8.40;99.90;;;;;;5024892;28;20493;-71
2023/11/10 02:49:59;;;;;;;10.97;10.67;;;8.40;99.90;;;;;;5018257;28;20485;-71
2023/11/10 02:52:26;;;;;;;10.60;10.40;;;8.40;99.90;;;;;;5017932;28;20449;-70
2023/11/10 02:54:53;;;;;;;10.60;10.40;;;8.40;99.90;;;;;;5023243;28;20465;-70
2023/11/10 02:57:21;;;;;;;10.43;10.23;;;8.40;99.90;;;;;;5015364;28;20474;-72
2023/11/10 02:59:50;;;;;;;10.20;10.00;;;8.40;99.90;;;;;;5024387;28;20855;-70
2023/11/10 03:02:16;;;;;;;10.70;10.50;;;8.40;99.90;;;;;;5021894;28;20474;-70
2023/11/10 03:04:43;;;;;;;10.17;9.97;;;8.40;99.90;;;;;;5022151;28;20453;-71
2023/11/10 03:07:10;;;;;;;10.17;9.97;;;8.40;99.90;;;;;;5015587;28;20539;-71
2023/11/10 03:09:39;;;;;;;9.93;9.73;;;8.40;99.90;;;;;;5033307;28;20544;-70
2023/11/10 03:12:08;;;;;;;10.00;9.80;;;8.40;99.90;;;;;;5014425;28;20549;-71
2023/11/10 03:14:35;;;;;;;9.80;9.60;;;8.40;99.90;;;;;;5016995;28;20574;-71
2023/11/10 03:17:05;;;;;;;9.80;9.60;;;8.30;99.90;;;;;;5025331;28;20856;-72
2023/11/10 03:19:32;;;;;;;9.73;9.53;;;8.30;99.90;;;;;;5018606;28;20603;-70
2023/11/10 03:22:00;;;;;;;9.60;9.40;;;8.40;99.90;;;;;;5011395;28;20453;-71
2023/11/10 03:24:27;;;;;;;9.83;9.63;;;8.40;99.90;;;;;;5016652;28;20963;-73
2023/11/10 03:26:54;;;;;;;9.53;9.33;;;8.40;99.90;;;;;;5021368;28;20497;-72
2023/11/10 03:29:21;;;;;;;9.23;9.03;;;8.40;99.90;;;;;;5013889;28;20469;-72
2023/11/10 03:31:47;;;;;;;9.90;9.70;;;8.30;99.90;;;;;;5014919;28;20460;-71
2023/11/10 03:34:16;;;;;;;9.97;9.77;;;8.30;99.90;;;;;;5023384;28;20461;-70
2023/11/10 03:36:43;;;;;;;9.50;9.30;;;8.40;99.90;;;;;;5023965;28;20535;-70
2023/11/10 03:39:10;;;;;;;9.53;9.33;;;8.40;99.90;;;;;;5013510;28;20944;-70
2023/11/10 03:41:37;;;;;;;9.80;9.60;;;8.40;99.90;;;;;;5024885;28;20472;-70
2023/11/10 03:44:05;;;;;;;9.90;9.70;;;8.40;99.90;;;;;;5023226;28;21034;-70
2023/11/10 03:46:32;;;;;;;9.37;9.17;;;8.20;99.90;;;;;;5015783;28;20858;-70
2023/11/10 03:48:59;;;;;;;9.13;8.93;;;8.30;99.90;;;;;;5024362;28;20962;-70
2023/11/10 03:51:28;;;;;;;9.07;8.87;;;8.20;99.90;;;;;;5019598;28;20586;-70
2023/11/10 03:53:54;;;;;;;9.00;8.80;;;8.20;99.90;;;;;;5015718;28;20577;-70
2023/11/10 03:56:21;;;;;;;8.87;8.67;;;8.20;99.90;;;;;;5016242;28;20558;-70
2023/11/10 03:58:49;;;;;;;8.40;8.30;;;8.20;99.90;;;;;;5012472;28;20501;-70
2023/11/10 04:01:15;;;;;;;9.00;8.80;;;8.20;99.90;;;;;;5023139;28;20545;-72
2023/11/10 04:03:43;;;;;;;8.50;8.40;;;8.20;99.90;;;;;;5026979;28;20469;-73
2023/11/10 04:06:10;;;;;;;8.37;8.27;;;8.20;99.90;;;;;;5028464;28;20762;-72
2023/11/10 04:08:38;;;;;;;8.40;8.30;;;8.20;99.90;;;;;;5027917;27;20465;-72
2023/11/10 04:11:05;;;;;;;8.53;8.43;;;8.20;99.90;;;;;;5030129;27;20880;-73
2023/11/10 04:13:33;;;;;;;9.00;8.80;;;8.20;99.90;;;;;;5016471;28;20464;-70
2023/11/10 04:15:59;;;;;;;9.10;8.90;;;8.30;99.90;;;;;;5024476;28;20956;-71
2023/11/10 04:18:27;;;;;;;9.43;9.23;;;8.30;99.90;;;;;;5018833;28;20801;-70
2023/11/10 04:20:56;;;;;;;9.70;9.50;;;8.30;99.90;;;;;;5022930;28;20465;-73
2023/11/10 04:23:23;;;;;;;9.10;8.90;;;8.20;99.90;;;;;;5025490;28;20458;-71
2023/11/10 04:25:51;;;;;;;9.40;9.20;;;8.20;99.90;;;;;;5010200;28;20482;-71
2023/11/10 04:28:18;;;;;;;9.40;9.20;;;8.10;99.90;;;;;;5026544;28;20472;-73
2023/11/10 04:30:45;;;;;;;9.40;9.20;;;8.00;99.90;;;;;;5025252;28;20522;-71
2023/11/10 04:33:12;;;;;;;9.10;8.90;;;8.00;99.90;;;;;;5023001;28;20836;-71
2023/11/10 04:35:39;;;;;;;9.20;9.00;;;8.00;99.90;;;;;;5027430;28;20470;-70
2023/11/10 04:38:08;;;;;;;9.07;8.87;;;7.90;99.90;;;;;;5008856;28;20871;-72
2023/11/10 04:40:34;;;;;;;9.13;8.93;;;7.90;99.90;;;;;;5023247;28;20462;-71
2023/11/10 04:43:04;;;;;;;9.37;9.17;;;7.80;99.90;;;;;;5021473;28;20543;-70
2023/11/10 04:45:33;;;;;;;9.37;9.17;;;7.90;99.90;;;;;;5020734;28;20497;-70
2023/11/10 04:48:00;;;;;;;9.20;9.00;;;7.90;99.90;;;;;;5019178;28;21019;-71
2023/11/10 04:50:28;;;;;;;9.60;9.40;;;7.90;99.90;;;;;;5027192;28;20979;-72
2023/11/10 04:52:54;;;;;;;9.50;9.30;;;7.90;99.90;;;;;;5027262;28;20465;-71
2023/11/10 04:55:21;;;;;;;9.70;9.50;;;8.00;99.90;;;;;;5022370;28;20501;-71
2023/11/10 04:57:48;;;;;;;9.87;9.67;;;8.00;99.90;;;;;;5012825;28;20958;-70
2023/11/10 05:00:17;;;;;;;9.77;9.57;;;8.10;99.90;;;;;;5018419;28;20810;-71
2023/11/10 05:02:45;;;;;;;9.33;9.13;;;8.20;99.90;;;;;;5016327;28;20457;-71
2023/11/10 05:05:14;;;;;;;10.17;9.97;;;8.20;99.90;;;;;;5007734;28;20557;-70
2023/11/10 05:07:41;;;;;;;10.17;9.97;;;8.20;99.90;;;;;;5020342;28;20499;-73
2023/11/10 05:10:09;;;;;;;9.70;9.50;;;8.20;99.90;;;;;;5018687;27;20496;-73
2023/11/10 05:12:37;;;;;;;10.20;10.00;;;8.10;99.90;;;;;;5025796;27;20545;-72
2023/11/10 05:15:06;;;;;;;10.13;9.93;;;8.10;99.90;;;;;;5024052;28;20472;-71
2023/11/10 05:17:39;;;;;;;10.67;10.43;;;8.10;99.90;;;;;;5014908;28;20557;-70
2023/11/10 05:20:07;;;;;;;10.13;9.93;;;8.20;99.90;;;;;;5022506;28;20493;-71
2023/11/10 05:22:34;;;;;;;10.47;10.27;;;8.20;99.90;;;;;;5020594;28;20507;-72
2023/11/10 05:25:02;;;;;;;10.40;10.20;;;8.30;99.90;;;;;;5013840;28;20497;-73
2023/11/10 05:27:29;;;;;;;10.50;10.30;;;8.30;99.90;;;;;;5013147;28;20500;-72
2023/11/10 05:29:56;;;;;;;10.17;9.97;;;8.30;99.90;;;;;;5023504;28;20457;-71
2023/11/10 05:32:22;;;;;;;10.30;10.10;;;8.30;99.90;;;;;;5023345;28;20458;-71
2023/11/10 05:34:51;;;;;;;10.40;10.20;;;8.20;99.90;;;;;;5017475;28;20465;-71
2023/11/10 05:37:19;;;;;;;10.53;10.33;;;8.20;99.90;;;;;;5016772;28;20497;-71
2023/11/10 05:39:47;;;;;;;10.50;10.27;;;8.30;99.90;;;;;;5018062;28;20572;-70
2023/11/10 05:42:13;;;;;;;10.60;10.40;;;8.30;99.90;;;;;;5018689;28;20487;-71
2023/11/10 05:44:40;;;;;;;10.57;10.33;;;8.30;99.90;;;;;;5022841;28;20481;-71
2023/11/10 05:47:08;;;;;;;10.60;10.40;;;8.20;99.90;;;;;;5014344;28;20539;-70
2023/11/10 05:49:35;;;;;;;11.00;10.70;;;8.20;99.90;;;;;;5020548;28;20481;-71
2023/11/10 05:52:04;;;;;;;10.83;10.53;;;8.30;99.90;;;;;;5025433;28;20510;-71
2023/11/10 05:54:31;;;;;;;10.87;10.57;;;8.30;99.90;;;;;;5025681;28;20795;-70
2023/11/10 05:56:58;;;;;;;10.50;10.30;;;8.20;99.90;;;;;;5021151;28;20472;-71
2023/11/10 05:59:25;;;;;;;10.53;10.33;;;8.30;99.90;;;;;;5013763;28;20462;-70
2023/11/10 06:01:52;;;;;;;11.10;10.80;;;8.30;99.90;;;;;;5014668;28;20473;-70
2023/11/10 06:04:20;;;;;;;11.40;11.10;;;8.30;99.90;;;;;;5021875;28;20449;-71
2023/11/10 06:06:48;;;;;;;11.37;11.07;;;8.30;99.90;;;;;;5021808;28;20493;-71
2023/11/10 06:09:17;;;;;;;11.17;10.87;;;8.30;99.90;;;;;;5035476;27;20458;-71
2023/11/10 06:11:45;;;;;;;11.13;10.83;;;8.30;99.90;;;;;;5020010;28;21020;-73
2023/11/10 06:14:12;;;;;;;11.50;11.20;;;8.30;99.90;;;;;;5014650;27;20533;-72
2023/11/10 06:16:40;;;;;;;11.60;11.30;;;8.20;99.90;;;;;;5017689;28;20480;-73
2023/11/10 06:19:07;;;;;;;11.90;11.60;;;8.10;99.90;;;;;;5016584;28;20962;-71
2023/11/10 06:21:35;;;;;;;11.77;11.47;;;8.20;99.90;;;;;;5023223;28;20818;-70
2023/11/10 06:24:02;;;;;;;11.67;11.37;;;8.20;99.90;;;;;;5023819;28;20462;-70
2023/11/10 06:26:31;;;;;;;11.63;11.33;;;8.10;99.90;;;;;;5010506;28;20485;-70
2023/11/10 06:28:58;;;;;;;11.90;11.60;;;8.10;99.90;;;;;;5018460;28;20457;-73
2023/11/10 06:31:25;;;;;;;11.70;11.40;;;8.10;99.90;;;;;;5013903;27;20505;-70
2023/11/10 06:33:52;;;;;;;11.37;11.07;;;8.20;99.90;;;;;;5026192;27;20985;-71
2023/11/10 06:36:20;;;;;;;11.60;11.30;;;8.20;99.90;;;;;;5014674;28;20464;-71
2023/11/10 06:38:48;;;;;;;11.30;11.00;;;8.20;99.90;;;;;;5026339;27;20470;-71
2023/11/10 06:41:15;;;;;;;11.50;11.20;;;8.20;99.90;;;;;;5018944;28;20964;-73
2023/11/10 06:43:45;;;;;;;11.13;10.83;;;8.20;99.90;;;;;;5016154;28;20823;-71
2023/11/10 06:46:12;;;;;;;11.53;11.23;;;8.20;99.90;;;;;;5018905;27;20466;-71
2023/11/10 06:48:40;;;;;;;11.47;11.17;;;8.20;99.90;;;;;;5023222;27;20462;-71
2023/11/10 06:51:06;;;;;;;11.50;11.20;;;8.30;99.90;;;;;;5006989;27;20489;-70
2023/11/10 06:53:33;;;;;;;11.90;11.60;;;8.30;99.90;;;;;;5012182;28;20986;-73
2023/11/10 06:56:00;;;;;;;12.10;11.80;;;8.30;99.90;;;;;;5010164;28;20466;-70
2023/11/10 06:58:27;;;;;;;11.73;11.43;;;8.30;99.90;;;;;;5010691;28;20991;-69
2023/11/10 07:00:58;;;;;;;11.70;11.40;;;8.20;99.90;;;;;;5009368;28;20469;-70
2023/11/10 07:03:25;;;;;;;11.93;11.63;;;8.10;99.90;;;;;;5019546;28;20530;-70
2023/11/10 07:05:52;;;;;;;12.00;11.70;;;8.10;99.90;;;;;;5010143;28;20462;-70
2023/11/10 07:08:20;;;;;;;11.90;11.60;;;8.00;99.90;;;;;;5013821;28;20489;-72
2023/11/10 07:10:51;;;;;;;12.60;12.20;;;8.00;99.90;;;;;;5017586;28;20940;-73
2023/11/10 07:13:19;;;;;;;11.70;11.40;;;8.00;99.90;;;;;;5041040;28;20490;-72
2023/11/10 07:15:46;;;;;;;12.10;11.80;;;7.90;99.90;;;;;;5018053;28;20473;-70
2023/11/10 07:18:15;;;;;;;11.70;11.40;;;7.90;99.90;;;;;;5021736;28;20488;-70
2023/11/10 07:20:44;;;;;;;11.73;11.43;;;7.80;99.90;;;;;;5012339;28;20470;-72
2023/11/10 07:23:11;;;;;;;11.40;11.10;;;7.80;99.90;;;;;;5011678;28;20474;-68
2023/11/10 07:25:38;;;;;;;11.97;11.67;;;7.80;99.90;;;;;;5012538;28;20470;-72
2023/11/10 07:28:06;;;;;;;12.00;11.70;;;7.80;99.90;;;;;;5019037;28;20922;-71
2023/11/10 07:30:33;;;;;;;12.53;12.13;;;7.70;99.90;;;;;;5015318;28;20548;-70
2023/11/10 07:33:00;;;;;;;12.50;12.10;;;7.70;99.90;;;;;;5020645;28;20962;-70
2023/11/10 07:35:28;;;;;;;12.40;12.00;;;7.80;99.90;;;;;;5027933;28;20449;-71
2023/11/10 07:37:55;;;;;;;11.70;11.40;;;7.80;99.90;;;;;;5016421;28;20465;-70
2023/11/10 07:40:22;;;;;;;11.67;11.37;;;7.80;99.90;;;;;;5003558;27;20457;-70
2023/11/10 07:42:50;;;;;;;12.23;11.83;;;7.80;99.90;;;;;;5012652;27;20829;-70
2023/11/10 07:45:18;;;;;;;12.47;12.07;;;7.80;99.90;;;;;;5009369;27;20645;-72
2023/11/10 07:47:46;;;;;;;12.40;12.00;;;7.80;99.90;;;;;;5009943;28;20493;-72
2023/11/10 07:50:14;;;;;;;11.87;11.57;;;7.90;99.90;;;;;;5011258;28;20492;-69
2023/11/10 07:52:43;;;;;;;11.77;11.47;;;7.90;99.90;;;;;;5006009;27;20476;-69
2023/11/10 07:55:10;;;;;;;11.97;11.67;;;8.00;99.90;;;;;;5006853;28;20466;-69
2023/11/10 07:57:37;;;;;;;11.63;11.33;;;8.10;99.90;;;;;;5008873;28;21013;-71
2023/11/10 08:00:07;;;;;;;12.13;11.80;;;8.20;99.90;;;;;;5010817;28;20466;-70
2023/11/10 08:02:35;;;;;;;12.10;11.80;;;8.30;99.90;;;;;;5007918;27;21101;-69
2023/11/10 08:05:02;;;;;;;11.20;10.90;;;8.40;99.90;;;;;;5009824;27;20484;-69
2023/11/10 08:07:30;;;;;;;12.17;11.87;;;8.50;99.90;;;;;;5009387;28;20853;-69
2023/11/10 08:09:58;;;;;;;12.07;11.77;;;8.50;99.90;;;;;;5012212;27;20960;-72
2023/11/10 08:12:25;;;;;;;12.13;11.83;;;8.60;99.90;;;;;;5007623;27;20469;-69
2023/11/10 08:14:51;;;;;;;11.97;11.67;;;8.70;99.90;;;;;;5010959;28;20474;-70
2023/11/10 08:17:18;;;;;;;12.57;12.17;;;8.80;99.90;;;;;;5018805;27;20497;-69
2023/11/10 08:19:45;;;;;;;13.20;12.80;;;8.80;99.90;;;;;;5006966;28;20457;-69
2023/11/10 08:22:12;;;;;;;13.50;13.10;;;8.90;99.90;;;;;;5013016;27;20469;-69
2023/11/10 08:24:40;;;;;;;13.00;12.60;;;9.00;99.90;;;;;;5014873;28;20497;-71
2023/11/10 08:27:09;;;;;;;13.80;13.30;;;9.10;99.90;;;;;;5010732;28;20493;-69
2023/11/10 08:29:36;;;;;;;12.93;12.53;;;9.10;99.90;;;;;;5008357;28;20817;-71
2023/11/10 08:32:03;;;;;;;13.70;13.30;;;9.10;99.90;;;;;;5007517;28;20474;-73
2023/11/10 08:34:30;;;;;;;13.40;13.00;;;9.20;99.90;;;;;;5011830;27;20550;-69
2023/11/10 08:36:57;;;;;;;13.10;12.70;;;9.20;99.90;;;;;;5011089;28;20831;-69
2023/11/10 08:39:25;;;;;;;13.23;12.83;;;9.10;99.90;;;;;;5012279;28;20560;-72
2023/11/10 08:41:52;;;;;;;13.60;13.20;;;9.20;99.90;;;;;;5009698;28;20461;-72
2023/11/10 08:44:22;;;;;;;13.60;13.20;;;9.20;99.90;;;;;;5009327;28;20568;-69
2023/11/10 08:46:50;;;;;;;13.30;12.90;;;9.20;99.90;;;;;;5010178;28;20481;-69
2023/11/10 08:49:17;;;;;;;13.27;12.87;;;9.20;99.90;;;;;;5012363;28;20466;-69
2023/11/10 08:51:44;;;;;;;13.00;12.60;;;9.20;99.90;;;;;;5007398;28;20839;-70
2023/11/10 08:54:11;;;;;;;13.67;13.27;;;9.30;99.90;;;;;;5010229;28;20981;-69
2023/11/10 08:56:38;;;;;;;13.50;13.10;;;9.40;99.90;;;;;;5014199;28;20465;-69
2023/11/10 08:59:05;;;;;;;13.33;12.93;;;9.50;99.90;;;;;;5006461;27;20522;-69
2023/11/10 09:01:34;;;;;;;13.50;13.10;;;9.60;99.90;;;;;;5012222;27;20619;-69
2023/11/10 09:04:03;;;;;;;13.63;13.23;;;9.70;99.90;;;;;;5005076;28;20470;-72
2023/11/10 09:06:31;;;;;;;13.43;13.03;;;9.70;99.90;;;;;;5008402;28;20912;-72
2023/11/10 09:08:58;;;;;;;13.97;13.47;;;9.70;99.90;;;;;;5011936;27;20520;-71
2023/11/10 09:11:25;;;;;;;13.70;13.30;;;9.70;99.90;;;;;;5010813;28;20474;-71
2023/11/10 09:13:52;;;;;;;14.27;13.77;;;9.70;99.90;;;;;;5011450;28;20496;-70
2023/11/10 09:16:20;;;;;;;13.60;13.20;;;9.80;99.90;;;;;;5009150;28;20469;-72
2023/11/10 09:18:49;;;;;;;13.50;13.10;;;9.90;99.90;;;;;;5012655;28;20598;-70
2023/11/10 09:21:16;;;;;;;14.13;13.63;;;10.00;99.90;;;;;;5006416;28;20459;-69
2023/11/10 09:23:44;;;;;;;14.63;14.13;;;10.00;99.90;;;;;;5011374;28;20477;-72
2023/11/10 09:26:12;;;;;;;13.87;13.37;;;10.20;99.90;;;;;;5007366;28;21055;-72
2023/11/10 09:28:39;;;;;;;14.47;13.97;;;10.30;99.90;;;;;;5010687;28;20524;-73
2023/11/10 09:31:06;;;;;;;14.33;13.83;;;10.30;99.90;;;;;;5007897;28;20462;-72
2023/11/10 09:33:33;;;;;;;14.30;13.80;;;10.40;99.90;;;;;;5002857;28;20569;-71
2023/11/10 09:36:01;;;;;;;14.50;14.00;;;10.60;99.90;;;;;;5007625;28;20471;-73
2023/11/10 09:38:28;;;;;;;14.13;13.63;;;10.60;99.90;;;;;;5007442;27;20575;-73
2023/11/10 09:40:56;;;;;;;14.50;14.00;;;10.60;99.90;;;;;;5004998;28;20465;-71
2023/11/10 09:43:27;;;;;;;14.73;14.23;;;10.60;99.90;;;;;;5008292;28;20931;-72
2023/11/10 09:45:56;;;;;;;14.73;14.23;;;10.50;99.90;;;;;;5009917;28;20651;-73
2023/11/10 09:48:24;;;;;;;14.57;14.07;;;10.40;99.90;;;;;;5009923;28;20494;-70
2023/11/10 09:50:52;;;;;;;14.43;13.93;;;10.30;99.90;;;;;;5009725;28;20836;-71
2023/11/10 09:53:22;;;;;;;15.00;14.50;;;10.40;99.90;;;;;;5003676;28;21194;-71
2023/11/10 09:55:51;;;;;;;14.30;13.80;;;10.40;99.90;;;;;;5010370;28;20478;-71
2023/11/10 09:58:20;;;;;;;14.47;13.97;;;10.60;99.90;;;;;;5010973;28;20469;-72
2023/11/10 10:00:49;;;;;;;13.47;13.07;;;10.80;99.90;;;;;;5007874;28;20986;-72
2023/11/10 10:03:17;;;;;;;14.40;13.90;;;11.10;99.90;;;;;;5012577;28;21116;-71
2023/11/10 10:05:45;;;;;;;13.73;13.33;;;11.10;99.90;;;;;;5007550;28;20519;-72
2023/11/10 10:08:12;;;;;;;14.10;13.60;;;11.30;99.90;;;;;;5011408;28;20980;-73
2023/11/10 10:10:44;;;;;;;14.23;13.73;;;11.20;99.90;;;;;;5007614;28;20471;-72
2023/11/10 10:13:11;;;;;;;14.10;13.60;;;11.30;99.90;;;;;;5011761;27;20480;-73
2023/11/10 10:15:38;;;;;;;14.30;13.80;;;11.20;99.90;;;;;;5010856;28;20941;-71
2023/11/10 10:18:06;;;;;;;14.80;14.30;;;11.20;99.90;;;;;;5009171;28;20554;-72
2023/11/10 10:20:33;;;;;;;14.93;14.43;;;11.10;99.90;;;;;;5010687;28;20465;-72
2023/11/10 10:23:00;;;;;;;14.53;14.03;;;11.10;99.90;;;;;;5008399;28;20466;-71
2023/11/10 10:25:27;;;;;;;14.93;14.43;;;11.20;99.90;;;;;;5008909;28;21053;-71
2023/11/10 10:27:56;;;;;;;14.90;14.40;;;11.10;99.90;;;;;;5010376;28;20492;-74
2023/11/10 10:30:23;;;;;;;14.30;13.80;;;10.90;99.90;;;;;;5008503;28;20461;-71
2023/11/10 10:32:51;;;;;;;14.77;14.27;;;10.90;99.90;;;;;;5010085;28;20454;-73
2023/11/10 10:35:18;;;;;;;14.90;14.40;;;10.90;99.90;;;;;;5006445;28;20779;-72
2023/11/10 10:37:45;;;;;;;14.37;13.87;;;10.70;99.90;;;;;;5011265;28;20494;-71
2023/11/10 10:40:13;;;;;;;14.77;14.27;;;10.60;99.90;;;;;;5008902;28;20498;-72
2023/11/10 10:42:43;;;;;;;14.90;14.40;;;10.60;99.90;;;;;;5007203;28;20486;-74
2023/11/10 10:45:12;;;;;;;14.10;13.60;;;10.50;99.90;;;;;;5009799;28;20504;-74
2023/11/10 10:47:40;;;;;;;14.77;14.27;;;10.40;99.90;;;;;;5007797;28;20473;-71
2023/11/10 10:50:10;;;;;;;14.37;13.87;;;10.40;99.90;;;;;;5005089;28;20492;-72
2023/11/10 10:52:38;;;;;;;14.50;14.00;;;10.40;99.90;;;;;;5007384;28;20477;-74
2023/11/10 10:55:06;;;;;;;14.03;13.53;;;10.50;99.90;;;;;;5008064;28;20465;-71
2023/11/10 10:57:34;;;;;;;14.30;13.80;;;10.50;99.90;;;;;;5008214;28;20454;-71
2023/11/10 11:00:01;;;;;;;14.20;13.70;;;10.50;99.90;;;;;;5005213;28;20481;-72
2023/11/10 11:02:32;;;;;;;14.53;14.03;;;10.50;99.90;;;;;;5008596;28;21241;-72
2023/11/10 11:05:05;;;;;;;14.87;14.37;;;10.40;99.90;;;;;;5011641;28;20932;-72
2023/11/10 11:07:49;;;;;;;14.70;14.20;;;10.40;99.90;;;;;;5010744;28;20552;-71
2023/11/10 11:10:37;;;;;;;14.90;14.40;;;10.10;99.90;;;;;;5009857;27;20480;-72
2023/11/10 11:13:30;;;;;;;14.70;14.20;;;10.00;99.90;;;;;;5016974;27;20472;-70
2023/11/10 11:16:22;;;;;;;13.93;13.43;;;10.10;99.90;;;;;;5014285;28;20465;-72
2023/11/10 11:19:08;;;;;;;14.30;13.80;;;10.20;99.90;;;;;;5008673;28;20477;-70
2023/11/10 11:21:36;;;;;;;14.20;13.70;;;10.10;99.90;;;;;;5014884;28;20472;-72
2023/11/10 11:24:06;;;;;;;14.37;13.87;;;10.10;99.90;;;;;;5012633;28;20848;-74
2023/11/10 11:26:34;;;;;;;14.60;14.10;;;10.10;99.90;;;;;;5012519;28;20651;-71
2023/11/10 11:29:20;;;;;;;14.27;13.77;;;10.20;99.90;;;;;;5011332;28;20873;-71
2023/11/10 11:31:47;;;;;;;13.93;13.43;;;10.20;99.90;;;;;;5014769;27;20461;-74
2023/11/10 11:34:19;;;;;;;14.23;13.73;;;10.10;99.90;;;;;;5004981;28;20969;-70
2023/11/10 11:36:46;;;;;;;14.37;13.87;;;10.00;99.90;;;;;;5008131;28;20497;-71
2023/11/10 11:39:17;;;;;;;13.40;13.00;;;10.00;99.90;;;;;;5005231;27;21170;-71
2023/11/10 11:41:50;;;;;;;14.33;13.83;;;10.00;99.90;;;;;;5012020;28;20470;-72
2023/11/10 11:44:26;;;;;;;13.60;13.20;;;10.20;99.90;;;;;;5009539;28;21083;-72
2023/11/10 11:46:56;;;;;;;13.40;13.00;;;10.30;99.90;;;;;;5007311;28;20472;-70
2023/11/10 11:49:25;;;;;;;13.50;13.10;;;10.30;99.90;;;;;;5007980;27;20494;-72
2023/11/10 11:51:54;;;;;;;13.73;13.33;;;10.30;99.90;;;;;;5013810;28;20489;-71
2023/11/10 11:54:22;;;;;;;14.13;13.63;;;10.30;99.90;;;;;;5013554;28;20465;-71
2023/11/10 11:56:50;;;;;;;13.90;13.40;;;10.30;99.90;;;;;;5009859;28;20737;-71
2023/11/10 11:59:17;;;;;;;13.83;13.33;;;10.20;99.90;;;;;;5010941;28;20891;-72
2023/11/10 12:01:43;;;;;;;13.83;13.43;;;10.20;99.90;;;;;;5010199;28;20461;-70
2023/11/10 12:04:11;;;;;;;14.33;13.83;;;10.30;99.90;;;;;;5011711;28;20474;-72
2023/11/10 12:06:42;;;;;;;13.73;13.33;;;10.30;99.90;;;;;;5006742;28;20497;-71
2023/11/10 12:09:09;;;;;;;13.67;13.27;;;10.40;99.90;;;;;;5012732;27;21186;-71
2023/11/10 12:11:37;;;;;;;14.47;13.97;;;10.50;99.90;;;;;;5003796;28;20476;-71
2023/11/10 12:14:06;;;;;;;14.17;13.67;;;10.50;99.90;;;;;;5015799;27;20476;-73
2023/11/10 12:16:33;;;;;;;13.87;13.47;;;10.50;99.90;;;;;;5010018;28;20858;-71
2023/11/10 12:19:03;;;;;;;13.67;13.27;;;10.50;99.90;;;;;;5014217;28;20921;-72
2023/11/10 12:21:30;;;;;;;13.50;13.10;;;10.50;99.90;;;;;;5007664;28;20578;-72
2023/11/10 12:24:03;;;;;;;13.57;13.17;;;10.40;99.90;;;;;;5010380;28;20819;-74
2023/11/10 12:26:34;;;;;;;14.17;13.67;;;10.20;99.90;;;;;;5010967;27;20467;-71
2023/11/10 12:29:04;;;;;;;13.20;12.80;;;10.40;99.90;;;;;;5012115;28;20497;-75
2023/11/10 12:31:32;;;;;;;13.40;13.00;;;10.50;99.90;;;;;;5013810;28;20518;-71
2023/11/10 12:34:00;;;;;;;13.70;13.30;;;10.40;99.90;;;;;;5013643;28;20477;-73
2023/11/10 12:36:31;;;;;;;14.40;13.90;;;10.20;99.90;;;;;;5012843;27;20470;-71
2023/11/10 12:38:59;;;;;;;14.50;14.00;;;10.00;99.90;;;;;;5008069;28;20526;-72
2023/11/10 12:41:29;;;;;;;14.53;14.03;;;9.90;99.90;;;;;;5016574;27;20465;-72
2023/11/10 12:43:56;;;;;;;15.63;15.03;;;9.80;99.90;;;;;;5014099;28;20664;-71